This is the latest recevied weather packets stored in our database for station/object N7WSS. If no packets are shown the sender has not sent any weather packets the latest 10 day(s).
| Time | Temp. | Humidity | Pressure | Rain* | Wind** | Luminosity | Snow |
|---|---|---|---|---|---|---|---|
| 1787988289 | 28.33° C | 48% | 1013.8 hPa | 0 mm | - | - | - |
| 1787987983 | 28.89° C | 48% | 1014 hPa | 0 mm | - | - | - |
| 1787987678 | 28.89° C | 48% | 1013.8 hPa | 0 mm | - | - | - |
| 1787987378 | 28.89° C | 48% | 1013.7 hPa | 0 mm | - | - | - |
| 1787987074 | 29.44° C | 44% | 1013.8 hPa | 0 mm | - | - | - |
| 1787986773 | 29.44° C | 41% | 1013.8 hPa | 0 mm | - | - | - |
| 1787986467 | 30° C | 41% | 1013.7 hPa | 0 mm | - | - | - |
| 1787986167 | 29.44° C | 40% | 1013.8 hPa | 0 mm | - | - | - |
| 1787985867 | 29.44° C | 42% | 1013.8 hPa | 0 mm | - | - | - |
| 1787985561 | 29.44° C | 43% | 1013.3 hPa | 0 mm | - | - | - |
| 1787985257 | 29.44° C | 44% | 1013.8 hPa | 0 mm | - | - | - |
| 1787984956 | 29.44° C | 44% | 1013.5 hPa | 0 mm | - | - | - |
| 1787984650 | 28.89° C | 46% | 1013.6 hPa | 0 mm | - | - | - |
| 1787984346 | 29.44° C | 46% | 1013.3 hPa | 0 mm | - | - | - |
| 1787984044 | 29.44° C | 45% | 1013.5 hPa | 0 mm | - | - | - |
| 1787983740 | 30° C | 45% | 1013.6 hPa | 0 mm | - | - | - |
| 1787983433 | 30° C | 44% | 1013.6 hPa | 0 mm | - | - | - |
| 1787983129 | 30.56° C | 44% | 1013.6 hPa | 0 mm | - | - | - |
| 1787982825 | 30° C | 44% | 1013.6 hPa | 0 mm | - | - | - |
| 1787982525 | 29.44° C | 45% | 1013.8 hPa | 0 mm | - | - | - |
| 1787982221 | 29.44° C | 46% | 1013.7 hPa | 0 mm | - | - | - |
| 1787981917 | 29.44° C | 48% | 1013.8 hPa | 0 mm | - | - | - |
| 1787981616 | 29.44° C | 49% | 1013.9 hPa | 0 mm | - | - | - |
| 1787981311 | 29.44° C | 50% | 1013.9 hPa | 0 mm | - | - | - |
| 1787981010 | 30.56° C | 43% | 1013.9 hPa | 0 mm | - | - | - |
* Rain latest hour (hover to see other rain measurements)
** Current wind speed in m/s (hover to see current wind gust speed)